createdAt,value
2019-05-20T00:00:48.385Z,97825.17
2019-05-20T00:03:14.531Z,97830.42
2019-05-20T00:05:41.259Z,97824.27
2019-05-20T00:08:07.564Z,97826.52
2019-05-20T00:10:33.709Z,97830.52
2019-05-20T00:13:00.319Z,97832.30
2019-05-20T00:15:26.502Z,97835.52
2019-05-20T00:17:52.768Z,97832.38
2019-05-20T00:20:20.018Z,97828.28
2019-05-20T00:22:46.056Z,97818.57
2019-05-20T00:25:12.669Z,97818.12
2019-05-20T00:27:41.198Z,97829.20
2019-05-20T00:30:08.902Z,97818.02
2019-05-20T00:32:41.052Z,97827.70
2019-05-20T00:35:05.452Z,97826.71
2019-05-20T00:37:31.553Z,97819.29
2019-05-20T00:39:57.689Z,97826.69
2019-05-20T00:42:24.200Z,97826.69
2019-05-20T00:44:50.280Z,97820.99
2019-05-20T00:47:16.450Z,97819.70
2019-05-20T00:49:42.942Z,97818.93
2019-05-20T00:52:08.965Z,97820.13
2019-05-20T00:54:35.061Z,97823.45
2019-05-20T00:57:01.611Z,97823.96
2019-05-20T00:59:27.698Z,97821.70
2019-05-20T01:01:54.459Z,97818.70
2019-05-20T01:04:20.527Z,97815.02
2019-05-20T01:06:46.647Z,97608.06
2019-05-20T01:09:12.956Z,97819.71
2019-05-20T01:11:39.321Z,97813.39
2019-05-20T01:14:05.637Z,97816.18
2019-05-20T01:16:32.700Z,97804.77
2019-05-20T01:18:58.846Z,97810.12
2019-05-20T01:21:24.933Z,97799.15
2019-05-20T01:23:51.127Z,97786.11
2019-05-20T01:26:17.929Z,97796.09
2019-05-20T01:28:44.093Z,97788.77
2019-05-20T01:31:10.255Z,97792.73
2019-05-20T01:33:36.715Z,97793.97
2019-05-20T01:36:03.048Z,97797.29
2019-05-20T01:38:29.119Z,97792.53
2019-05-20T01:40:55.699Z,97802.31
2019-05-20T01:43:21.731Z,97803.61
2019-05-20T01:45:47.898Z,97796.28
2019-05-20T01:48:14.584Z,97796.05
2019-05-20T01:50:42.333Z,97789.47
2019-05-20T01:53:10.512Z,97801.17
2019-05-20T01:55:38.886Z,97780.12
2019-05-20T01:58:05.004Z,97785.70
2019-05-20T02:00:31.144Z,97783.97
2019-05-20T02:02:57.664Z,97743.16
2019-05-20T02:05:23.838Z,97783.64
2019-05-20T02:07:50.008Z,97786.63
2019-05-20T02:10:16.767Z,97782.23
2019-05-20T02:12:42.819Z,97781.88
2019-05-20T02:15:13.858Z,97789.52
2019-05-20T02:17:40.375Z,97783.06
2019-05-20T02:20:06.747Z,97788.28
2019-05-20T02:22:33.202Z,97778.41
2019-05-20T02:24:59.683Z,97783.99
2019-05-20T02:27:25.739Z,97785.28
2019-05-20T02:29:51.775Z,97775.37
2019-05-20T02:32:18.534Z,97780.97
2019-05-20T02:34:44.659Z,97785.05
2019-05-20T02:37:10.711Z,97781.63
2019-05-20T02:39:37.323Z,97780.73
2019-05-20T02:42:03.542Z,97773.75
2019-05-20T02:44:29.591Z,97779.34
2019-05-20T02:46:55.712Z,97772.35
2019-05-20T02:49:21.775Z,97775.15
2019-05-20T02:51:47.897Z,97761.19
2019-05-20T02:54:14.067Z,97766.27
2019-05-20T02:56:40.810Z,97760.45
2019-05-20T02:59:06.892Z,97721.66
2019-05-20T03:01:33.054Z,97754.10
2019-05-20T03:04:10.757Z,97765.80
2019-05-20T03:06:27.464Z,97792.43
2019-05-20T03:08:53.670Z,97761.19
2019-05-20T03:11:20.210Z,97771.72
2019-05-20T03:13:46.403Z,97763.34
2019-05-20T03:16:15.581Z,97790.41
2019-05-20T03:18:41.317Z,97764.74
2019-05-20T03:21:07.473Z,97767.53
2019-05-20T03:23:33.847Z,97769.45
2019-05-20T03:26:00.229Z,97770.63
2019-05-20T03:28:26.556Z,97571.11
2019-05-20T03:30:52.727Z,97756.56
2019-05-20T03:33:19.303Z,97763.41
2019-05-20T03:35:45.501Z,97765.96
2019-05-20T03:38:11.519Z,97771.55
2019-05-20T03:40:38.357Z,97768.39
2019-05-20T03:43:04.392Z,97761.20
2019-05-20T03:45:32.570Z,97765.39
2019-05-20T03:47:59.287Z,97757.54
2019-05-20T03:50:25.575Z,97771.50
2019-05-20T03:52:51.585Z,97756.02
2019-05-20T03:55:17.740Z,97761.36
2019-05-20T03:57:43.993Z,97759.09
2019-05-20T04:00:10.159Z,97757.70
2019-05-20T04:02:36.535Z,97755.05
2019-05-20T04:05:03.514Z,97766.73
2019-05-20T04:07:29.945Z,97764.05
2019-05-20T04:09:56.080Z,97770.40
2019-05-20T04:12:22.263Z,97768.47
2019-05-20T04:14:48.523Z,97773.40
2019-05-20T04:17:14.897Z,97774.06
2019-05-20T04:19:41.163Z,97768.58
2019-05-20T04:22:07.708Z,97778.82
2019-05-20T04:24:33.775Z,97766.13
2019-05-20T04:27:00.436Z,97766.49
2019-05-20T04:29:26.800Z,97761.14
2019-05-20T04:31:53.498Z,97783.08
2019-05-20T04:34:19.707Z,97763.77
2019-05-20T04:36:45.849Z,97760.69
2019-05-20T04:39:12.226Z,97773.06
2019-05-20T04:41:38.607Z,97769.20
2019-05-20T04:44:04.965Z,97766.98
2019-05-20T04:46:31.096Z,97758.70
2019-05-20T04:48:57.312Z,97765.63
2019-05-20T04:51:23.431Z,97762.86
2019-05-20T04:53:49.548Z,97757.97
2019-05-20T04:56:15.635Z,97758.10
2019-05-20T04:58:42.396Z,97757.20
2019-05-20T05:01:08.432Z,97759.91
2019-05-20T05:03:34.684Z,97762.02
2019-05-20T05:06:01.456Z,97759.80
2019-05-20T05:08:27.582Z,97751.75
2019-05-20T05:10:53.616Z,97750.59
2019-05-20T05:13:20.490Z,97752.56
2019-05-20T05:15:46.581Z,97756.06
2019-05-20T05:18:12.597Z,97748.86
2019-05-20T05:20:39.170Z,97757.58
2019-05-20T05:23:05.246Z,97771.16
2019-05-20T05:25:32.906Z,97761.46
2019-05-20T05:27:59.476Z,97756.52
2019-05-20T05:30:25.533Z,97753.27
2019-05-20T05:32:51.725Z,97760.48
2019-05-20T05:35:18.720Z,97761.65
2019-05-20T05:37:45.026Z,97765.09
2019-05-20T05:40:11.307Z,97767.65
2019-05-20T05:42:37.656Z,97756.34
2019-05-20T05:45:04.925Z,97762.90
2019-05-20T05:47:31.093Z,97766.63
2019-05-20T05:49:57.643Z,97754.53
2019-05-20T05:52:23.714Z,97749.44
2019-05-20T05:54:49.847Z,97757.61
2019-05-20T05:57:16.238Z,97758.59
2019-05-20T05:59:42.289Z,97766.67
2019-05-20T06:02:08.451Z,97757.70
2019-05-20T06:04:34.677Z,97756.91
2019-05-20T06:07:00.946Z,97779.14
2019-05-20T06:09:27.340Z,97753.86
2019-05-20T06:11:53.603Z,97768.41
2019-05-20T06:14:19.672Z,97769.86
2019-05-20T06:16:45.589Z,97782.36
2019-05-20T06:19:12.098Z,97774.84
2019-05-20T06:21:38.275Z,97785.90
2019-05-20T06:24:04.550Z,97779.03
2019-05-20T06:26:30.671Z,97780.55
2019-05-20T06:28:57.506Z,97771.02
2019-05-20T06:31:23.530Z,97780.38
2019-05-20T06:33:49.681Z,97771.68
2019-05-20T06:36:26.573Z,97765.00
2019-05-20T06:38:44.934Z,97760.51
2019-05-20T06:41:11.270Z,97761.31
2019-05-20T06:43:37.684Z,97769.59
2019-05-20T06:46:04.081Z,97766.34
2019-05-20T06:48:30.073Z,97769.81
2019-05-20T06:50:56.445Z,97758.63
2019-05-20T06:53:22.484Z,97759.05
2019-05-20T06:55:48.545Z,97762.53
2019-05-20T06:58:15.073Z,97762.80
2019-05-20T07:00:41.573Z,97758.30
2019-05-20T07:03:07.897Z,97773.69
2019-05-20T07:05:34.345Z,97770.02
2019-05-20T07:08:01.406Z,97768.63
2019-05-20T07:10:27.874Z,97771.31
2019-05-20T07:12:54.309Z,97766.33
2019-05-20T07:15:20.607Z,97766.95
2019-05-20T07:17:46.903Z,97782.95
2019-05-20T07:20:13.402Z,97798.42
2019-05-20T07:22:54.438Z,97765.52
2019-05-20T07:25:07.890Z,97775.02
2019-05-20T07:27:34.121Z,97766.56
2019-05-20T07:30:00.280Z,97767.27
2019-05-20T07:32:26.509Z,97722.44
2019-05-20T07:34:52.688Z,97766.31
2019-05-20T07:37:18.759Z,97718.33
2019-05-20T07:39:44.883Z,97767.55
2019-05-20T07:42:10.971Z,97759.00
2019-05-20T07:44:37.541Z,97763.86
2019-05-20T07:47:03.839Z,97763.41
2019-05-20T07:49:30.110Z,97761.68
2019-05-20T07:51:56.769Z,97755.22
2019-05-20T07:54:23.394Z,97753.53
2019-05-20T07:56:51.314Z,97760.23
2019-05-20T07:59:20.783Z,97757.36
2019-05-20T08:01:46.805Z,97763.10
2019-05-20T08:04:12.961Z,97761.23
2019-05-20T08:06:39.389Z,97749.44
2019-05-20T08:09:06.360Z,97758.60
2019-05-20T08:11:32.369Z,97754.60
2019-05-20T08:13:58.763Z,97740.95
2019-05-20T08:16:24.852Z,97744.05
2019-05-20T08:18:50.989Z,97742.11
2019-05-20T08:21:17.518Z,97743.76
2019-05-20T08:23:43.902Z,97740.28
2019-05-20T08:26:10.071Z,97763.77
2019-05-20T08:28:36.464Z,97747.86
2019-05-20T08:31:02.934Z,97746.70
2019-05-20T08:33:29.082Z,97742.77
2019-05-20T08:35:55.851Z,97745.17
2019-05-20T08:38:22.063Z,97745.02
2019-05-20T08:40:48.851Z,97747.22
2019-05-20T08:43:15.368Z,97748.00
2019-05-20T08:45:41.440Z,97747.46
2019-05-20T08:48:07.511Z,97737.39
2019-05-20T08:50:34.199Z,97732.72
2019-05-20T08:53:00.793Z,97702.70
2019-05-20T08:55:27.173Z,97757.00
2019-05-20T08:57:56.164Z,97743.20
2019-05-20T09:00:24.030Z,97743.76
2019-05-20T09:02:50.557Z,97734.73
2019-05-20T09:05:17.372Z,97738.78
2019-05-20T09:07:43.550Z,97731.75
2019-05-20T09:10:10.663Z,97738.52
2019-05-20T09:12:36.885Z,97579.75
2019-05-20T09:15:05.299Z,97704.84
2019-05-20T09:17:31.566Z,97728.00
2019-05-20T09:19:57.886Z,97731.38
2019-05-20T09:22:23.966Z,97735.34
2019-05-20T09:24:50.383Z,97741.86
2019-05-20T09:27:18.640Z,97726.47
2019-05-20T09:29:44.917Z,97731.69
2019-05-20T09:32:11.261Z,97729.62
2019-05-20T09:34:37.848Z,97725.64
2019-05-20T09:37:03.910Z,97728.26
2019-05-20T09:39:29.969Z,97725.46
2019-05-20T09:41:56.459Z,97719.25
2019-05-20T09:44:22.630Z,97714.70
2019-05-20T09:46:48.679Z,97714.22
2019-05-20T09:49:15.137Z,97716.45
2019-05-20T09:51:41.280Z,97716.39
2019-05-20T09:54:07.326Z,97716.92
2019-05-20T09:56:33.753Z,97707.19
2019-05-20T09:58:59.927Z,97702.36
2019-05-20T10:01:26.152Z,97701.70
2019-05-20T10:03:52.200Z,97704.55
2019-05-20T10:06:18.395Z,97700.56
2019-05-20T10:08:45.368Z,97701.55
2019-05-20T10:11:12.150Z,97702.38
2019-05-20T10:13:38.260Z,97705.20
2019-05-20T10:16:04.425Z,97698.86
2019-05-20T10:18:37.495Z,97702.35
2019-05-20T10:20:58.539Z,97697.43
2019-05-20T10:23:24.969Z,97696.08
2019-05-20T10:25:51.256Z,97704.46
2019-05-20T10:28:17.475Z,97690.56
2019-05-20T10:30:43.599Z,97687.04
2019-05-20T10:33:10.739Z,97679.30
2019-05-20T10:35:37.183Z,97685.41
2019-05-20T10:38:03.275Z,97683.11
2019-05-20T10:40:29.657Z,97677.46
2019-05-20T10:42:55.813Z,97529.43
2019-05-20T10:45:22.204Z,97678.55
2019-05-20T10:47:48.388Z,97679.19
2019-05-20T10:50:14.736Z,97671.58
2019-05-20T10:52:41.171Z,97678.97
2019-05-20T10:55:07.575Z,97665.45
2019-05-20T10:57:33.720Z,97662.11
2019-05-20T11:00:00.008Z,97663.84
2019-05-20T11:02:31.019Z,97668.17
2019-05-20T11:04:54.283Z,97663.70
2019-05-20T11:07:20.750Z,97661.70
2019-05-20T11:09:46.974Z,97665.14
2019-05-20T11:12:12.988Z,97660.06
2019-05-20T11:14:39.320Z,97651.98
2019-05-20T11:17:05.342Z,97639.50
2019-05-20T11:19:31.499Z,97640.63
2019-05-20T11:21:58.004Z,97644.05
2019-05-20T11:24:24.175Z,97643.20
2019-05-20T11:26:50.341Z,97636.40
2019-05-20T11:29:16.495Z,97636.67
2019-05-20T11:31:42.585Z,97636.39
2019-05-20T11:34:08.816Z,97639.14
2019-05-20T11:36:35.505Z,97629.89
2019-05-20T11:39:01.910Z,97629.09
2019-05-20T11:41:52.198Z,97629.83
2019-05-20T11:43:56.063Z,97633.64
2019-05-20T11:46:22.441Z,97628.13
2019-05-20T11:48:49.036Z,97626.62
2019-05-20T11:51:15.398Z,97630.05
2019-05-20T11:53:41.968Z,97623.98
2019-05-20T11:56:11.905Z,97618.38
2019-05-20T11:58:36.630Z,97616.46
2019-05-20T12:01:06.590Z,97611.75
2019-05-20T12:03:32.750Z,97604.66
2019-05-20T12:05:58.993Z,97602.27
2019-05-20T12:08:25.248Z,97588.76
2019-05-20T12:10:51.981Z,97599.63
2019-05-20T12:13:18.282Z,97597.55
2019-05-20T12:15:44.526Z,97605.22
2019-05-20T12:18:11.094Z,97596.83
2019-05-20T12:20:37.203Z,97590.16
2019-05-20T12:23:03.355Z,97594.49
2019-05-20T12:25:29.821Z,97588.69
2019-05-20T12:27:56.000Z,97600.08
2019-05-20T12:30:22.268Z,97592.26
2019-05-20T12:32:48.614Z,97569.59
2019-05-20T12:35:14.786Z,97594.79
2019-05-20T12:37:41.092Z,97595.22
2019-05-20T12:40:08.483Z,97600.98
2019-05-20T12:42:35.514Z,97601.08
2019-05-20T12:45:02.588Z,97595.58
2019-05-20T12:47:29.186Z,97595.56
2019-05-20T12:49:55.476Z,97591.94
2019-05-20T12:52:21.763Z,97582.48
2019-05-20T12:55:04.146Z,97583.08
2019-05-20T12:57:16.229Z,97586.14
2019-05-20T12:59:42.547Z,97585.47
2019-05-20T13:02:09.417Z,97594.57
2019-05-20T13:04:35.658Z,97583.28
2019-05-20T13:07:02.000Z,97584.36
2019-05-20T13:09:28.098Z,97581.30
2019-05-20T13:11:54.722Z,97586.70
2019-05-20T13:14:20.965Z,97582.38
2019-05-20T13:16:48.209Z,97431.19
2019-05-20T13:19:14.267Z,97591.86
2019-05-20T13:21:40.302Z,97577.28
2019-05-20T13:24:06.795Z,97574.56
2019-05-20T13:26:32.974Z,97579.42
2019-05-20T13:28:59.915Z,97566.67
2019-05-20T13:31:26.061Z,97570.42
2019-05-20T13:33:52.278Z,97574.28
2019-05-20T13:36:18.781Z,97582.53
2019-05-20T13:38:45.096Z,97590.53
2019-05-20T13:41:11.271Z,97585.22
2019-05-20T13:43:37.903Z,97588.54
2019-05-20T13:46:04.258Z,97431.27
2019-05-20T13:48:30.660Z,97588.36
2019-05-20T13:50:57.437Z,97581.22
2019-05-20T13:53:23.684Z,97605.53
2019-05-20T13:55:50.039Z,97630.16
2019-05-20T13:58:16.269Z,97665.61
2019-05-20T14:00:42.922Z,97634.24
2019-05-20T14:03:09.083Z,97641.86
2019-05-20T14:05:35.684Z,97650.98
2019-05-20T14:08:02.533Z,97652.57
2019-05-20T14:10:29.406Z,97651.46
2019-05-20T14:12:55.592Z,97657.48
2019-05-20T14:15:21.879Z,97661.02
2019-05-20T14:17:48.480Z,97663.30
2019-05-20T14:20:14.750Z,97652.72
2019-05-20T14:22:41.839Z,97668.22
2019-05-20T14:25:08.992Z,97669.25
2019-05-20T14:27:35.657Z,97672.66
2019-05-20T14:30:04.163Z,97668.81
2019-05-20T14:32:30.769Z,97486.70
2019-05-20T14:35:07.105Z,97678.38
2019-05-20T14:37:35.859Z,97674.64
2019-05-20T14:40:07.380Z,97677.64
2019-05-20T14:42:37.996Z,97584.03
2019-05-20T14:45:08.394Z,97682.30
2019-05-20T14:47:39.620Z,97683.98
2019-05-20T14:50:08.510Z,97692.09
2019-05-20T14:52:37.491Z,97685.49
2019-05-20T14:55:09.714Z,97687.80
2019-05-20T14:57:39.170Z,97625.27
2019-05-20T15:00:07.570Z,97523.12
2019-05-20T15:02:43.720Z,97685.86
2019-05-20T15:05:10.725Z,97690.44
2019-05-20T15:07:37.955Z,97695.55
2019-05-20T15:10:10.303Z,97685.88
2019-05-20T15:12:39.021Z,97526.37
2019-05-20T15:15:11.505Z,97700.84
2019-05-20T15:17:42.173Z,97690.07
2019-05-20T15:20:12.417Z,97685.95
2019-05-20T15:22:44.592Z,97686.34
2019-05-20T15:25:11.727Z,97686.91
2019-05-20T15:27:38.829Z,97687.56
2019-05-20T15:30:07.901Z,97685.39
2019-05-20T15:35:33.438Z,97687.63
2019-05-20T15:38:01.118Z,97701.12
2019-05-20T15:40:28.662Z,97692.47
2019-05-20T15:42:55.411Z,97517.81
2019-05-20T15:45:23.872Z,97681.57
2019-05-20T15:47:51.008Z,97674.13
2019-05-20T15:50:18.458Z,97670.44
2019-05-20T15:52:46.297Z,97674.73
2019-05-20T15:55:21.893Z,97669.15
2019-05-20T15:57:56.084Z,97662.63
2019-05-20T16:00:27.903Z,97664.69
2019-05-20T16:02:55.119Z,97659.30
2019-05-20T16:05:22.855Z,97657.71
2019-05-20T16:07:52.807Z,97659.72
2019-05-20T16:10:21.927Z,97660.84
2019-05-20T16:12:51.720Z,97666.72
2019-05-20T16:15:18.914Z,97657.42
2019-05-20T16:17:50.320Z,97670.55
2019-05-20T16:20:18.309Z,97665.88
2019-05-20T16:22:45.144Z,97677.05
2019-05-20T16:25:11.934Z,97676.34
2019-05-20T16:27:38.458Z,97672.54
2019-05-20T16:30:07.989Z,97674.80
2019-05-20T16:32:34.396Z,97678.41
2019-05-20T16:35:01.285Z,97681.81
2019-05-20T16:37:28.291Z,97681.55
2019-05-20T16:39:55.140Z,97680.09
2019-05-20T16:42:22.035Z,97681.77
2019-05-20T16:44:48.850Z,97677.64
2019-05-20T16:47:15.835Z,97677.37
2019-05-20T16:49:42.965Z,97674.91
2019-05-20T16:52:10.595Z,97684.68
2019-05-20T16:54:37.401Z,97672.76
2019-05-20T16:57:04.710Z,97668.83
2019-05-20T16:59:31.578Z,97498.61
2019-05-20T17:01:58.178Z,97672.76
2019-05-20T17:04:26.608Z,97665.81
2019-05-20T17:06:53.102Z,97667.32
2019-05-20T17:09:19.613Z,97679.70
2019-05-20T17:11:45.889Z,97670.80
2019-05-20T17:14:12.227Z,97675.50
2019-05-20T17:16:38.800Z,97671.25
2019-05-20T17:19:05.269Z,97673.88
2019-05-20T17:21:31.604Z,97665.63
2019-05-20T17:23:58.032Z,97661.58
2019-05-20T17:26:24.879Z,97665.41
2019-05-20T17:28:51.651Z,97661.95
2019-05-20T17:31:18.463Z,97656.44
2019-05-20T17:33:45.258Z,97665.24
2019-05-20T17:36:11.991Z,97669.91
2019-05-20T17:38:39.100Z,97657.81
2019-05-20T17:41:06.426Z,97665.86
2019-05-20T17:43:33.724Z,97672.38
2019-05-20T17:46:00.853Z,97671.92
2019-05-20T17:48:28.158Z,97672.54
2019-05-20T17:50:55.498Z,97671.77
2019-05-20T17:53:24.037Z,97669.23
2019-05-20T17:55:50.586Z,97664.05
2019-05-20T17:58:17.907Z,97663.77
2019-05-20T18:00:45.229Z,97661.44
2019-05-20T18:03:12.559Z,97663.00
2019-05-20T18:05:40.054Z,97654.16
2019-05-20T18:08:07.562Z,97660.26
2019-05-20T18:10:38.765Z,97655.84
2019-05-20T18:13:06.093Z,97652.75
2019-05-20T18:15:35.423Z,97656.00
2019-05-20T18:18:03.173Z,97648.89
2019-05-20T18:20:30.280Z,97641.95
2019-05-20T18:22:57.492Z,97648.13
2019-05-20T18:25:24.236Z,97651.98
2019-05-20T18:27:53.523Z,97654.80
2019-05-20T18:30:22.756Z,97475.88
2019-05-20T18:32:49.444Z,97664.41
2019-05-20T18:35:16.471Z,97657.53
2019-05-20T18:37:43.876Z,97650.98
2019-05-20T18:40:14.430Z,97661.58
2019-05-20T18:42:41.062Z,97667.92
2019-05-20T18:45:09.592Z,97667.92
2019-05-20T18:47:36.877Z,97662.78
2019-05-20T18:50:09.055Z,97672.96
2019-05-20T18:52:36.035Z,97667.05
2019-05-20T18:55:06.886Z,97663.28
2019-05-20T18:57:34.151Z,97660.73
2019-05-20T19:00:00.966Z,97467.58
2019-05-20T19:02:27.858Z,97661.35
2019-05-20T19:04:54.211Z,97662.98
2019-05-20T19:07:21.247Z,97655.15
2019-05-20T19:09:47.613Z,97664.94
2019-05-20T19:12:14.070Z,97657.97
2019-05-20T19:14:42.170Z,97647.30
2019-05-20T19:17:09.629Z,97649.14
2019-05-20T19:19:35.950Z,97649.28
2019-05-20T19:22:02.809Z,97644.69
2019-05-20T19:24:29.016Z,97632.41
2019-05-20T19:26:58.119Z,97646.78
2019-05-20T19:29:24.915Z,97644.31
2019-05-20T19:32:01.562Z,97639.81
2019-05-20T19:34:20.373Z,97638.32
2019-05-20T19:36:47.320Z,97643.60
2019-05-20T19:39:13.726Z,97634.16
2019-05-20T19:41:40.056Z,97633.09
2019-05-20T19:44:06.908Z,97644.66
2019-05-20T19:46:33.730Z,97649.42
2019-05-20T19:49:00.427Z,97645.09
2019-05-20T19:51:26.780Z,97640.67
2019-05-20T19:53:53.347Z,97643.18
2019-05-20T19:56:19.706Z,97649.34
2019-05-20T19:58:46.049Z,97647.42
2019-05-20T20:01:12.912Z,97648.98
2019-05-20T20:03:39.703Z,97655.36
2019-05-20T20:06:06.196Z,97668.77
2019-05-20T20:08:33.099Z,97659.94
2019-05-20T20:11:02.079Z,97649.82
2019-05-20T20:13:29.042Z,97457.02
2019-05-20T20:15:56.067Z,97643.79
2019-05-20T20:18:22.526Z,97636.78
2019-05-20T20:20:48.765Z,97667.52
2019-05-20T20:23:15.315Z,97649.73
2019-05-20T20:25:41.540Z,97653.17
2019-05-20T20:28:07.675Z,97657.47
2019-05-20T20:30:33.891Z,97641.96
2019-05-20T20:33:00.304Z,97654.45
2019-05-20T20:35:37.743Z,97661.16
2019-05-20T20:37:55.036Z,97659.53
2019-05-20T20:40:21.193Z,97665.05
2019-05-20T20:42:48.846Z,97663.01
2019-05-20T20:45:15.624Z,97681.95
2019-05-20T20:47:43.946Z,97670.56
2019-05-20T20:50:11.131Z,97666.45
2019-05-20T20:52:37.956Z,97664.95
2019-05-20T20:55:05.358Z,97666.23
2019-05-20T20:57:34.181Z,97669.89
2019-05-20T21:00:01.068Z,97674.95
2019-05-20T21:02:27.172Z,97672.91
2019-05-20T21:04:53.359Z,97673.67
2019-05-20T21:07:19.628Z,97676.26
2019-05-20T21:09:46.584Z,97671.20
2019-05-20T21:12:12.762Z,97672.39
2019-05-20T21:14:39.088Z,97671.44
2019-05-20T21:17:05.911Z,97467.83
2019-05-20T21:19:33.018Z,97682.13
2019-05-20T21:21:59.454Z,97679.75
2019-05-20T21:24:26.404Z,97676.19
2019-05-20T21:26:52.455Z,97673.73
2019-05-20T21:29:18.627Z,97683.20
2019-05-20T21:31:45.115Z,97675.80
2019-05-20T21:34:11.548Z,97677.84
2019-05-20T21:36:47.042Z,97687.33
2019-05-20T21:39:06.347Z,97678.71
2019-05-20T21:41:32.488Z,97685.63
2019-05-20T21:43:58.931Z,97685.41
2019-05-20T21:46:25.377Z,97690.78
2019-05-20T21:48:51.756Z,97689.71
2019-05-20T21:51:18.029Z,97689.50
2019-05-20T21:53:44.610Z,97693.29
2019-05-20T21:56:10.923Z,97686.28
2019-05-20T21:58:37.146Z,97682.63
2019-05-20T22:01:03.800Z,97685.43
2019-05-20T22:03:29.981Z,97690.17
2019-05-20T22:05:56.195Z,97680.91
2019-05-20T22:08:22.725Z,97684.36
2019-05-20T22:10:48.881Z,97682.09
2019-05-20T22:13:15.478Z,97674.34
2019-05-20T22:15:42.842Z,97672.72
2019-05-20T22:18:09.015Z,97678.31
2019-05-20T22:20:35.069Z,97664.86
2019-05-20T22:23:15.387Z,97668.42
2019-05-20T22:25:41.672Z,97660.78
2019-05-20T22:28:07.790Z,97669.60
2019-05-20T22:30:33.952Z,97663.24
2019-05-20T22:33:00.120Z,97665.85
2019-05-20T22:35:26.176Z,97661.11
2019-05-20T22:37:52.534Z,97660.25
2019-05-20T22:40:18.840Z,97657.33
2019-05-20T22:42:44.916Z,97661.53
2019-05-20T22:45:10.956Z,97658.63
2019-05-20T22:47:37.012Z,97646.67
2019-05-20T22:50:04.127Z,97647.98
2019-05-20T22:52:30.692Z,97633.22
2019-05-20T22:54:56.678Z,97636.56
2019-05-20T22:57:22.814Z,97636.34
2019-05-20T22:59:49.223Z,97642.16
2019-05-20T23:02:15.295Z,97632.27
2019-05-20T23:04:41.204Z,97636.47
2019-05-20T23:07:07.741Z,97621.93
2019-05-20T23:09:33.759Z,97632.91
2019-05-20T23:12:00.073Z,97633.45
2019-05-20T23:14:26.518Z,97625.69
2019-05-20T23:16:52.574Z,97633.67
2019-05-20T23:19:18.787Z,97632.27
2019-05-20T23:21:45.383Z,97633.00
2019-05-20T23:24:11.610Z,97628.07
2019-05-20T23:26:37.890Z,97631.51
2019-05-20T23:29:04.291Z,97627.41
2019-05-20T23:31:30.394Z,97623.52
2019-05-20T23:34:11.416Z,97638.40
2019-05-20T23:36:24.406Z,97627.39
2019-05-20T23:38:50.583Z,97636.77
2019-05-20T23:41:17.192Z,97629.01
2019-05-20T23:43:43.559Z,97635.37
2019-05-20T23:46:09.604Z,97634.83
2019-05-20T23:48:35.611Z,97631.17
2019-05-20T23:51:01.908Z,97635.47
2019-05-20T23:53:28.126Z,97628.68
2019-05-20T23:55:54.202Z,97633.52
2019-05-20T23:58:20.582Z,97632.02
